sensor_id;sensor_type;location;lat;lon;timestamp;temperature;humidity
29431;DHT22;16404;49.902;10.074;2022-11-15T00:00:20;11.20;69.90
29431;DHT22;16404;49.902;10.074;2022-11-15T00:03:25;11.20;69.70
29431;DHT22;16404;49.902;10.074;2022-11-15T00:06:29;11.30;69.70
29431;DHT22;16404;49.902;10.074;2022-11-15T00:09:33;11.40;69.80
29431;DHT22;16404;49.902;10.074;2022-11-15T00:12:36;11.40;70.00
29431;DHT22;16404;49.902;10.074;2022-11-15T00:15:41;11.50;69.80
29431;DHT22;16404;49.902;10.074;2022-11-15T00:18:44;11.50;69.60
29431;DHT22;16404;49.902;10.074;2022-11-15T00:21:47;11.60;69.60
29431;DHT22;16404;49.902;10.074;2022-11-15T00:24:51;11.60;69.50
29431;DHT22;16404;49.902;10.074;2022-11-15T00:27:58;11.70;69.50
29431;DHT22;16404;49.902;10.074;2022-11-15T00:31:03;11.70;69.60
29431;DHT22;16404;49.902;10.074;2022-11-15T00:34:07;11.70;69.50
29431;DHT22;16404;49.902;10.074;2022-11-15T00:37:10;11.80;69.50
29431;DHT22;16404;49.902;10.074;2022-11-15T00:40:13;11.80;69.30
29431;DHT22;16404;49.902;10.074;2022-11-15T00:43:16;11.80;69.30
29431;DHT22;16404;49.902;10.074;2022-11-15T00:46:19;11.90;69.30
29431;DHT22;16404;49.902;10.074;2022-11-15T00:49:22;11.90;69.10
29431;DHT22;16404;49.902;10.074;2022-11-15T00:52:25;12.00;69.10
29431;DHT22;16404;49.902;10.074;2022-11-15T00:55:29;12.00;69.00
29431;DHT22;16404;49.902;10.074;2022-11-15T00:58:32;12.00;69.00
29431;DHT22;16404;49.902;10.074;2022-11-15T01:01:35;12.00;68.90
29431;DHT22;16404;49.902;10.074;2022-11-15T01:04:39;12.10;68.90
29431;DHT22;16404;49.902;10.074;2022-11-15T01:07:42;12.10;68.90
29431;DHT22;16404;49.902;10.074;2022-11-15T01:10:45;12.10;68.90
29431;DHT22;16404;49.902;10.074;2022-11-15T01:13:49;12.10;68.80
29431;DHT22;16404;49.902;10.074;2022-11-15T01:16:52;12.10;68.80
29431;DHT22;16404;49.902;10.074;2022-11-15T01:19:55;12.20;68.90
29431;DHT22;16404;49.902;10.074;2022-11-15T01:22:59;12.20;68.90
29431;DHT22;16404;49.902;10.074;2022-11-15T01:26:03;12.20;68.80
29431;DHT22;16404;49.902;10.074;2022-11-15T01:29:07;12.20;68.70
29431;DHT22;16404;49.902;10.074;2022-11-15T01:32:10;12.30;68.60
29431;DHT22;16404;49.902;10.074;2022-11-15T01:35:14;12.30;68.60
29431;DHT22;16404;49.902;10.074;2022-11-15T01:38:17;12.30;68.50
29431;DHT22;16404;49.902;10.074;2022-11-15T01:41:23;12.20;68.50
29431;DHT22;16404;49.902;10.074;2022-11-15T01:47:46;12.20;68.40
29431;DHT22;16404;49.902;10.074;2022-11-15T01:50:50;12.30;68.20
29431;DHT22;16404;49.902;10.074;2022-11-15T01:53:56;12.30;68.10
29431;DHT22;16404;49.902;10.074;2022-11-15T01:57:09;12.20;68.30
29431;DHT22;16404;49.902;10.074;2022-11-15T02:00:14;12.20;68.30
29431;DHT22;16404;49.902;10.074;2022-11-15T02:03:17;12.20;68.30
29431;DHT22;16404;49.902;10.074;2022-11-15T02:06:21;12.20;68.20
29431;DHT22;16404;49.902;10.074;2022-11-15T02:09:25;12.20;68.30
29431;DHT22;16404;49.902;10.074;2022-11-15T02:12:29;12.20;68.20
29431;DHT22;16404;49.902;10.074;2022-11-15T02:15:40;12.30;68.30
29431;DHT22;16404;49.902;10.074;2022-11-15T02:18:52;12.30;68.20
29431;DHT22;16404;49.902;10.074;2022-11-15T02:22:14;12.30;68.10
29431;DHT22;16404;49.902;10.074;2022-11-15T02:28:44;12.20;68.40
29431;DHT22;16404;49.902;10.074;2022-11-15T02:41:53;12.20;68.50
29431;DHT22;16404;49.902;10.074;2022-11-15T02:44:49;12.20;68.40
29431;DHT22;16404;49.902;10.074;2022-11-15T02:47:55;12.20;68.20
29431;DHT22;16404;49.902;10.074;2022-11-15T02:51:01;12.20;67.90
29431;DHT22;16404;49.902;10.074;2022-11-15T02:54:04;12.30;67.50
29431;DHT22;16404;49.902;10.074;2022-11-15T02:57:16;12.30;67.20
29431;DHT22;16404;49.902;10.074;2022-11-15T03:00:21;12.20;66.90
29431;DHT22;16404;49.902;10.074;2022-11-15T03:04:03;12.10;66.60
29431;DHT22;16404;49.902;10.074;2022-11-15T03:10:36;11.70;67.00
29431;DHT22;16404;49.902;10.074;2022-11-15T03:17:23;11.60;67.10
29431;DHT22;16404;49.902;10.074;2022-11-15T03:20:28;11.60;66.80
29431;DHT22;16404;49.902;10.074;2022-11-15T03:23:33;11.50;66.40
29431;DHT22;16404;49.902;10.074;2022-11-15T03:26:38;11.50;66.20
29431;DHT22;16404;49.902;10.074;2022-11-15T03:29:46;11.40;66.20
29431;DHT22;16404;49.902;10.074;2022-11-15T03:32:54;11.30;66.10
29431;DHT22;16404;49.902;10.074;2022-11-15T03:35:59;11.20;65.90
29431;DHT22;16404;49.902;10.074;2022-11-15T03:39:06;11.10;65.90
29431;DHT22;16404;49.902;10.074;2022-11-15T03:45:27;11.00;65.70
29431;DHT22;16404;49.902;10.074;2022-11-15T03:48:37;10.80;65.80
29431;DHT22;16404;49.902;10.074;2022-11-15T03:51:43;10.70;65.90
29431;DHT22;16404;49.902;10.074;2022-11-15T03:54:55;10.60;66.00
29431;DHT22;16404;49.902;10.074;2022-11-15T03:58:00;10.50;65.90
29431;DHT22;16404;49.902;10.074;2022-11-15T04:01:03;10.50;65.90
29431;DHT22;16404;49.902;10.074;2022-11-15T04:04:07;10.50;65.90
29431;DHT22;16404;49.902;10.074;2022-11-15T04:07:11;10.40;65.80
29431;DHT22;16404;49.902;10.074;2022-11-15T04:10:14;10.40;65.90
29431;DHT22;16404;49.902;10.074;2022-11-15T04:13:17;10.30;65.90
29431;DHT22;16404;49.902;10.074;2022-11-15T04:16:20;10.30;65.80
29431;DHT22;16404;49.902;10.074;2022-11-15T04:19:24;10.20;65.70
29431;DHT22;16404;49.902;10.074;2022-11-15T04:22:46;10.20;65.70
29431;DHT22;16404;49.902;10.074;2022-11-15T04:26:11;10.10;65.60
29431;DHT22;16404;49.902;10.074;2022-11-15T04:29:15;10.00;65.70
29431;DHT22;16404;49.902;10.074;2022-11-15T04:32:37;10.00;65.90
29431;DHT22;16404;49.902;10.074;2022-11-15T04:35:40;9.90;65.80
29431;DHT22;16404;49.902;10.074;2022-11-15T04:38:43;9.90;65.90
29431;DHT22;16404;49.902;10.074;2022-11-15T04:41:46;9.90;66.10
29431;DHT22;16404;49.902;10.074;2022-11-15T04:44:49;9.80;66.10
29431;DHT22;16404;49.902;10.074;2022-11-15T04:47:52;9.70;66.10
29431;DHT22;16404;49.902;10.074;2022-11-15T04:50:55;9.70;66.30
29431;DHT22;16404;49.902;10.074;2022-11-15T04:53:59;9.60;66.50
29431;DHT22;16404;49.902;10.074;2022-11-15T04:57:02;9.50;66.60
29431;DHT22;16404;49.902;10.074;2022-11-15T05:00:08;9.40;66.70
29431;DHT22;16404;49.902;10.074;2022-11-15T05:03:11;9.30;66.80
29431;DHT22;16404;49.902;10.074;2022-11-15T05:06:33;9.30;66.90
29431;DHT22;16404;49.902;10.074;2022-11-15T05:09:37;9.30;66.70
29431;DHT22;16404;49.902;10.074;2022-11-15T05:12:40;9.20;66.50
29431;DHT22;16404;49.902;10.074;2022-11-15T05:15:43;9.10;66.50
29431;DHT22;16404;49.902;10.074;2022-11-15T05:18:49;9.10;66.50
29431;DHT22;16404;49.902;10.074;2022-11-15T05:21:53;9.20;66.30
29431;DHT22;16404;49.902;10.074;2022-11-15T05:24:56;9.20;65.90
29431;DHT22;16404;49.902;10.074;2022-11-15T05:27:59;9.20;65.70
29431;DHT22;16404;49.902;10.074;2022-11-15T05:31:05;9.20;65.70
29431;DHT22;16404;49.902;10.074;2022-11-15T05:34:08;9.10;65.70
29431;DHT22;16404;49.902;10.074;2022-11-15T05:37:13;9.10;65.50
29431;DHT22;16404;49.902;10.074;2022-11-15T05:40:17;9.00;65.50
29431;DHT22;16404;49.902;10.074;2022-11-15T05:43:21;9.00;65.70
29431;DHT22;16404;49.902;10.074;2022-11-15T05:46:24;9.00;65.80
29431;DHT22;16404;49.902;10.074;2022-11-15T05:49:31;9.00;65.80
29431;DHT22;16404;49.902;10.074;2022-11-15T05:52:37;8.90;65.90
29431;DHT22;16404;49.902;10.074;2022-11-15T05:55:41;8.90;66.00
29431;DHT22;16404;49.902;10.074;2022-11-15T05:58:44;8.80;66.00
29431;DHT22;16404;49.902;10.074;2022-11-15T06:01:48;8.80;66.00
29431;DHT22;16404;49.902;10.074;2022-11-15T06:04:51;8.70;65.90
29431;DHT22;16404;49.902;10.074;2022-11-15T06:07:57;8.70;65.90
29431;DHT22;16404;49.902;10.074;2022-11-15T06:11:05;8.70;65.90
29431;DHT22;16404;49.902;10.074;2022-11-15T06:14:09;8.70;65.80
29431;DHT22;16404;49.902;10.074;2022-11-15T06:17:12;8.50;66.00
29431;DHT22;16404;49.902;10.074;2022-11-15T06:20:16;8.60;66.10
29431;DHT22;16404;49.902;10.074;2022-11-15T06:23:19;8.60;66.00
29431;DHT22;16404;49.902;10.074;2022-11-15T06:26:23;8.50;65.80
29431;DHT22;16404;49.902;10.074;2022-11-15T06:29:26;8.50;65.80
29431;DHT22;16404;49.902;10.074;2022-11-15T06:32:29;8.50;65.90
29431;DHT22;16404;49.902;10.074;2022-11-15T06:35:34;8.50;65.90
29431;DHT22;16404;49.902;10.074;2022-11-15T06:38:38;8.40;66.00
29431;DHT22;16404;49.902;10.074;2022-11-15T06:41:41;8.40;66.20
29431;DHT22;16404;49.902;10.074;2022-11-15T06:44:44;8.40;66.20
29431;DHT22;16404;49.902;10.074;2022-11-15T06:47:48;8.40;66.30
29431;DHT22;16404;49.902;10.074;2022-11-15T06:50:52;8.30;66.60
29431;DHT22;16404;49.902;10.074;2022-11-15T06:53:55;8.30;66.90
29431;DHT22;16404;49.902;10.074;2022-11-15T06:56:58;8.30;67.10
29431;DHT22;16404;49.902;10.074;2022-11-15T07:00:04;8.30;67.00
29431;DHT22;16404;49.902;10.074;2022-11-15T07:03:08;8.30;67.10
29431;DHT22;16404;49.902;10.074;2022-11-15T07:06:11;8.40;67.00
29431;DHT22;16404;49.902;10.074;2022-11-15T07:09:15;8.40;67.30
29431;DHT22;16404;49.902;10.074;2022-11-15T07:12:18;8.30;67.50
29431;DHT22;16404;49.902;10.074;2022-11-15T07:15:24;8.40;67.60
29431;DHT22;16404;49.902;10.074;2022-11-15T07:18:27;8.50;67.50
29431;DHT22;16404;49.902;10.074;2022-11-15T07:21:30;8.60;67.40
29431;DHT22;16404;49.902;10.074;2022-11-15T07:24:34;8.70;67.30
29431;DHT22;16404;49.902;10.074;2022-11-15T07:27:37;9.00;67.20
29431;DHT22;16404;49.902;10.074;2022-11-15T07:30:41;9.30;66.90
29431;DHT22;16404;49.902;10.074;2022-11-15T07:33:44;9.70;66.40
29431;DHT22;16404;49.902;10.074;2022-11-15T07:36:47;10.10;65.80
29431;DHT22;16404;49.902;10.074;2022-11-15T07:39:50;10.60;65.10
29431;DHT22;16404;49.902;10.074;2022-11-15T07:43:02;11.00;64.40
29431;DHT22;16404;49.902;10.074;2022-11-15T07:46:06;11.30;64.00
29431;DHT22;16404;49.902;10.074;2022-11-15T07:49:11;11.60;63.90
29431;DHT22;16404;49.902;10.074;2022-11-15T07:52:15;11.90;63.70
29431;DHT22;16404;49.902;10.074;2022-11-15T07:55:18;12.20;63.00
29431;DHT22;16404;49.902;10.074;2022-11-15T07:58:21;12.50;63.10
29431;DHT22;16404;49.902;10.074;2022-11-15T08:01:24;12.70;63.10
29431;DHT22;16404;49.902;10.074;2022-11-15T08:04:27;12.90;63.10
29431;DHT22;16404;49.902;10.074;2022-11-15T08:07:31;13.10;63.10
29431;DHT22;16404;49.902;10.074;2022-11-15T08:10:34;13.30;62.90
29431;DHT22;16404;49.902;10.074;2022-11-15T08:13:50;13.60;62.70
29431;DHT22;16404;49.902;10.074;2022-11-15T08:16:54;13.80;62.70
29431;DHT22;16404;49.902;10.074;2022-11-15T08:19:58;14.20;62.60
29431;DHT22;16404;49.902;10.074;2022-11-15T08:23:03;14.50;62.40
29431;DHT22;16404;49.902;10.074;2022-11-15T08:26:06;14.60;62.20
29431;DHT22;16404;49.902;10.074;2022-11-15T08:29:10;14.60;62.10
29431;DHT22;16404;49.902;10.074;2022-11-15T08:32:13;14.60;62.20
29431;DHT22;16404;49.902;10.074;2022-11-15T08:35:16;14.60;62.50
29431;DHT22;16404;49.902;10.074;2022-11-15T08:38:19;14.50;62.70
29431;DHT22;16404;49.902;10.074;2022-11-15T08:44:29;14.30;63.70
29431;DHT22;16404;49.902;10.074;2022-11-15T08:47:33;14.20;63.90
29431;DHT22;16404;49.902;10.074;2022-11-15T08:50:36;14.10;64.20
29431;DHT22;16404;49.902;10.074;2022-11-15T08:53:40;14.00;64.50
29431;DHT22;16404;49.902;10.074;2022-11-15T08:56:43;13.90;64.70
29431;DHT22;16404;49.902;10.074;2022-11-15T08:59:47;13.80;64.90
29431;DHT22;16404;49.902;10.074;2022-11-15T09:02:50;13.80;65.00
29431;DHT22;16404;49.902;10.074;2022-11-15T09:05:58;13.70;65.10
29431;DHT22;16404;49.902;10.074;2022-11-15T09:09:02;13.60;65.10
29431;DHT22;16404;49.902;10.074;2022-11-15T09:12:06;13.60;65.20
29431;DHT22;16404;49.902;10.074;2022-11-15T09:15:10;13.60;65.60
29431;DHT22;16404;49.902;10.074;2022-11-15T09:18:13;13.60;65.80
29431;DHT22;16404;49.902;10.074;2022-11-15T09:21:16;13.50;66.00
29431;DHT22;16404;49.902;10.074;2022-11-15T09:24:19;13.40;66.40
29431;DHT22;16404;49.902;10.074;2022-11-15T09:27:27;13.40;66.70
29431;DHT22;16404;49.902;10.074;2022-11-15T09:30:31;13.40;66.90
29431;DHT22;16404;49.902;10.074;2022-11-15T09:33:34;13.40;66.90
29431;DHT22;16404;49.902;10.074;2022-11-15T09:36:37;13.50;66.60
29431;DHT22;16404;49.902;10.074;2022-11-15T09:39:40;13.50;66.30
29431;DHT22;16404;49.902;10.074;2022-11-15T09:46:17;13.60;66.20
29431;DHT22;16404;49.902;10.074;2022-11-15T09:49:23;13.50;66.40
29431;DHT22;16404;49.902;10.074;2022-11-15T09:52:21;13.60;66.30
29431;DHT22;16404;49.902;10.074;2022-11-15T09:55:09;13.60;66.10
29431;DHT22;16404;49.902;10.074;2022-11-15T09:58:00;13.70;66.10
29431;DHT22;16404;49.902;10.074;2022-11-15T10:00:48;13.70;65.90
29431;DHT22;16404;49.902;10.074;2022-11-15T10:03:38;13.70;66.10
29431;DHT22;16404;49.902;10.074;2022-11-15T10:06:27;13.70;66.40
29431;DHT22;16404;49.902;10.074;2022-11-15T10:09:21;13.80;66.60
29431;DHT22;16404;49.902;10.074;2022-11-15T10:12:08;13.80;66.80
29431;DHT22;16404;49.902;10.074;2022-11-15T10:15:06;13.80;67.00
29431;DHT22;16404;49.902;10.074;2022-11-15T10:21:17;13.90;66.50
29431;DHT22;16404;49.902;10.074;2022-11-15T10:24:11;14.10;66.20
29431;DHT22;16404;49.902;10.074;2022-11-15T10:26:56;14.10;66.10
29431;DHT22;16404;49.902;10.074;2022-11-15T10:29:48;14.20;66.10
29431;DHT22;16404;49.902;10.074;2022-11-15T10:32:34;14.30;66.20
29431;DHT22;16404;49.902;10.074;2022-11-15T10:35:24;14.40;66.20
29431;DHT22;16404;49.902;10.074;2022-11-15T10:38:10;14.50;66.30
29431;DHT22;16404;49.902;10.074;2022-11-15T10:41:07;14.60;66.40
29431;DHT22;16404;49.902;10.074;2022-11-15T10:47:06;14.80;67.00
29431;DHT22;16404;49.902;10.074;2022-11-15T10:50:00;14.90;66.60
29431;DHT22;16404;49.902;10.074;2022-11-15T10:52:45;15.00;66.10
29431;DHT22;16404;49.902;10.074;2022-11-15T10:55:33;15.10;66.00
29431;DHT22;16404;49.902;10.074;2022-11-15T11:01:21;15.30;65.30
29431;DHT22;16404;49.902;10.074;2022-11-15T11:04:08;15.30;64.80
29431;DHT22;16404;49.902;10.074;2022-11-15T11:09:39;15.60;65.00
29431;DHT22;16404;49.902;10.074;2022-11-15T11:12:29;15.70;65.00
29431;DHT22;16404;49.902;10.074;2022-11-15T11:15:16;15.70;64.90
29431;DHT22;16404;49.902;10.074;2022-11-15T11:18:15;15.80;65.00
29431;DHT22;16404;49.902;10.074;2022-11-15T11:21:09;15.80;65.00
29431;DHT22;16404;49.902;10.074;2022-11-15T11:24:07;15.90;64.80
29431;DHT22;16404;49.902;10.074;2022-11-15T11:30:22;16.10;64.30
29431;DHT22;16404;49.902;10.074;2022-11-15T11:38:58;16.40;64.10
29431;DHT22;16404;49.902;10.074;2022-11-15T11:42:17;16.60;63.30
29431;DHT22;16404;49.902;10.074;2022-11-15T11:48:14;16.80;61.50
29431;DHT22;16404;49.902;10.074;2022-11-15T11:51:12;17.00;61.60
29431;DHT22;16404;49.902;10.074;2022-11-15T11:54:20;16.90;62.30
29431;DHT22;16404;49.902;10.074;2022-11-15T11:57:09;17.10;61.40
29431;DHT22;16404;49.902;10.074;2022-11-15T12:00:22;17.30;61.10
29431;DHT22;16404;49.902;10.074;2022-11-15T12:06:37;17.60;60.60
29431;DHT22;16404;49.902;10.074;2022-11-15T12:09:31;17.70;60.40
29431;DHT22;16404;49.902;10.074;2022-11-15T12:12:41;17.80;59.90
29431;DHT22;16404;49.902;10.074;2022-11-15T12:15:31;17.80;59.00
29431;DHT22;16404;49.902;10.074;2022-11-15T12:18:16;18.00;58.90
29431;DHT22;16404;49.902;10.074;2022-11-15T12:21:07;18.00;58.70
29431;DHT22;16404;49.902;10.074;2022-11-15T12:24:04;18.10;58.10
29431;DHT22;16404;49.902;10.074;2022-11-15T12:27:19;18.10;58.20
29431;DHT22;16404;49.902;10.074;2022-11-15T12:30:16;18.20;58.70
29431;DHT22;16404;49.902;10.074;2022-11-15T12:33:02;18.20;59.00
29431;DHT22;16404;49.902;10.074;2022-11-15T12:36:34;18.20;59.10
29431;DHT22;16404;49.902;10.074;2022-11-15T12:39:09;18.10;58.90
29431;DHT22;16404;49.902;10.074;2022-11-15T12:47:26;18.20;58.20
29431;DHT22;16404;49.902;10.074;2022-11-15T12:50:13;18.20;58.70
29431;DHT22;16404;49.902;10.074;2022-11-15T12:59:00;18.10;58.50
29431;DHT22;16404;49.902;10.074;2022-11-15T13:04:31;18.10;58.70
29431;DHT22;16404;49.902;10.074;2022-11-15T13:13:08;18.00;58.50
29431;DHT22;16404;49.902;10.074;2022-11-15T13:15:58;18.00;58.50
29431;DHT22;16404;49.902;10.074;2022-11-15T13:18:43;17.90;58.60
29431;DHT22;16404;49.902;10.074;2022-11-15T13:21:48;18.00;58.50
29431;DHT22;16404;49.902;10.074;2022-11-15T13:24:52;17.90;58.30
29431;DHT22;16404;49.902;10.074;2022-11-15T13:27:36;18.00;58.40
29431;DHT22;16404;49.902;10.074;2022-11-15T13:30:27;18.00;59.00
29431;DHT22;16404;49.902;10.074;2022-11-15T13:36:14;17.90;59.00
29431;DHT22;16404;49.902;10.074;2022-11-15T13:39:06;17.90;58.30
29431;DHT22;16404;49.902;10.074;2022-11-15T13:41:52;18.00;58.10
29431;DHT22;16404;49.902;10.074;2022-11-15T13:44:36;18.00;57.80
29431;DHT22;16404;49.902;10.074;2022-11-15T13:47:21;18.00;57.80
29431;DHT22;16404;49.902;10.074;2022-11-15T13:50:05;18.10;58.40
29431;DHT22;16404;49.902;10.074;2022-11-15T13:52:52;18.10;58.60
29431;DHT22;16404;49.902;10.074;2022-11-15T13:55:36;18.10;58.20
29431;DHT22;16404;49.902;10.074;2022-11-15T13:58:21;18.10;58.30
29431;DHT22;16404;49.902;10.074;2022-11-15T14:01:06;18.20;58.70
29431;DHT22;16404;49.902;10.074;2022-11-15T14:03:53;18.20;58.60
29431;DHT22;16404;49.902;10.074;2022-11-15T14:06:45;18.30;58.70
29431;DHT22;16404;49.902;10.074;2022-11-15T14:09:38;18.30;58.80
29431;DHT22;16404;49.902;10.074;2022-11-15T14:12:33;18.30;58.90
29431;DHT22;16404;49.902;10.074;2022-11-15T14:15:38;18.30;59.00
29431;DHT22;16404;49.902;10.074;2022-11-15T14:18:44;18.30;59.20
29431;DHT22;16404;49.902;10.074;2022-11-15T14:21:29;18.30;58.70
29431;DHT22;16404;49.902;10.074;2022-11-15T14:24:21;18.30;58.80
29431;DHT22;16404;49.902;10.074;2022-11-15T14:30:05;18.30;58.50
29431;DHT22;16404;49.902;10.074;2022-11-15T14:32:50;18.30;58.30
29431;DHT22;16404;49.902;10.074;2022-11-15T14:35:38;18.30;58.50
29431;DHT22;16404;49.902;10.074;2022-11-15T14:38:24;18.30;58.70
29431;DHT22;16404;49.902;10.074;2022-11-15T14:41:29;18.30;58.80
29431;DHT22;16404;49.902;10.074;2022-11-15T14:44:17;18.20;58.90
29431;DHT22;16404;49.902;10.074;2022-11-15T14:47:02;18.30;58.90
29431;DHT22;16404;49.902;10.074;2022-11-15T14:49:47;18.20;58.90
29431;DHT22;16404;49.902;10.074;2022-11-15T14:52:32;18.10;59.00
29431;DHT22;16404;49.902;10.074;2022-11-15T14:58:10;18.00;59.00
29431;DHT22;16404;49.902;10.074;2022-11-15T15:00:54;18.00;58.80
29431;DHT22;16404;49.902;10.074;2022-11-15T15:03:38;18.00;58.90
29431;DHT22;16404;49.902;10.074;2022-11-15T15:06:23;17.90;58.80
29431;DHT22;16404;49.902;10.074;2022-11-15T15:09:08;17.90;58.80
29431;DHT22;16404;49.902;10.074;2022-11-15T15:11:52;17.80;58.60
29431;DHT22;16404;49.902;10.074;2022-11-15T15:14:38;17.80;58.70
29431;DHT22;16404;49.902;10.074;2022-11-15T15:17:23;17.70;58.80
29431;DHT22;16404;49.902;10.074;2022-11-15T15:20:08;17.60;58.80
29431;DHT22;16404;49.902;10.074;2022-11-15T15:22:53;17.50;58.90
29431;DHT22;16404;49.902;10.074;2022-11-15T15:25:37;17.50;59.00
29431;DHT22;16404;49.902;10.074;2022-11-15T15:28:21;17.50;58.90
29431;DHT22;16404;49.902;10.074;2022-11-15T15:31:06;17.50;59.00
29431;DHT22;16404;49.902;10.074;2022-11-15T15:33:51;17.40;59.10
29431;DHT22;16404;49.902;10.074;2022-11-15T15:36:35;17.40;59.10
29431;DHT22;16404;49.902;10.074;2022-11-15T15:39:19;17.30;59.20
29431;DHT22;16404;49.902;10.074;2022-11-15T15:42:03;17.30;59.30
29431;DHT22;16404;49.902;10.074;2022-11-15T15:44:48;17.30;59.40
29431;DHT22;16404;49.902;10.074;2022-11-15T15:47:33;17.20;59.50
29431;DHT22;16404;49.902;10.074;2022-11-15T15:53:04;17.10;59.60
29431;DHT22;16404;49.902;10.074;2022-11-15T15:55:48;17.00;59.70
29431;DHT22;16404;49.902;10.074;2022-11-15T15:58:32;16.90;59.70
29431;DHT22;16404;49.902;10.074;2022-11-15T16:01:17;16.90;59.90
29431;DHT22;16404;49.902;10.074;2022-11-15T16:04:01;16.90;59.90
29431;DHT22;16404;49.902;10.074;2022-11-15T16:06:45;16.80;60.00
29431;DHT22;16404;49.902;10.074;2022-11-15T16:09:29;16.80;60.00
29431;DHT22;16404;49.902;10.074;2022-11-15T16:12:33;16.80;60.00
29431;DHT22;16404;49.902;10.074;2022-11-15T16:15:18;16.80;60.10
29431;DHT22;16404;49.902;10.074;2022-11-15T16:18:03;16.80;60.20
29431;DHT22;16404;49.902;10.074;2022-11-15T16:20:48;16.70;60.20
29431;DHT22;16404;49.902;10.074;2022-11-15T16:23:40;16.70;61.10
29431;DHT22;16404;49.902;10.074;2022-11-15T16:26:28;16.70;60.30
29431;DHT22;16404;49.902;10.074;2022-11-15T16:29:13;16.70;60.30
29431;DHT22;16404;49.902;10.074;2022-11-15T16:31:57;16.60;60.30
29431;DHT22;16404;49.902;10.074;2022-11-15T16:34:41;16.60;60.30
29431;DHT22;16404;49.902;10.074;2022-11-15T16:37:26;16.60;60.40
29431;DHT22;16404;49.902;10.074;2022-11-15T16:40:22;16.60;60.40
29431;DHT22;16404;49.902;10.074;2022-11-15T16:43:08;16.60;60.50
29431;DHT22;16404;49.902;10.074;2022-11-15T16:45:52;16.50;60.50
29431;DHT22;16404;49.902;10.074;2022-11-15T16:48:38;16.50;60.50
29431;DHT22;16404;49.902;10.074;2022-11-15T16:51:23;16.50;60.50
29431;DHT22;16404;49.902;10.074;2022-11-15T16:54:07;16.40;60.60
29431;DHT22;16404;49.902;10.074;2022-11-15T16:56:51;16.40;60.60
29431;DHT22;16404;49.902;10.074;2022-11-15T16:59:36;16.40;60.60
29431;DHT22;16404;49.902;10.074;2022-11-15T17:02:20;16.30;60.70
29431;DHT22;16404;49.902;10.074;2022-11-15T17:05:05;16.20;60.70
29431;DHT22;16404;49.902;10.074;2022-11-15T17:07:49;16.10;60.80
29431;DHT22;16404;49.902;10.074;2022-11-15T17:10:38;16.10;60.80
29431;DHT22;16404;49.902;10.074;2022-11-15T17:13:22;16.10;60.90
29431;DHT22;16404;49.902;10.074;2022-11-15T17:16:08;16.00;61.00
29431;DHT22;16404;49.902;10.074;2022-11-15T17:18:52;15.90;61.20
29431;DHT22;16404;49.902;10.074;2022-11-15T17:21:36;16.00;61.30
29431;DHT22;16404;49.902;10.074;2022-11-15T17:24:21;16.00;61.20
29431;DHT22;16404;49.902;10.074;2022-11-15T17:27:05;16.00;61.10
29431;DHT22;16404;49.902;10.074;2022-11-15T17:29:49;16.00;61.10
29431;DHT22;16404;49.902;10.074;2022-11-15T17:32:37;16.00;61.10
29431;DHT22;16404;49.902;10.074;2022-11-15T17:35:21;16.00;61.00
29431;DHT22;16404;49.902;10.074;2022-11-15T17:38:05;16.00;60.90
29431;DHT22;16404;49.902;10.074;2022-11-15T17:41:03;16.10;60.90
29431;DHT22;16404;49.902;10.074;2022-11-15T17:43:48;16.10;60.90
29431;DHT22;16404;49.902;10.074;2022-11-15T17:46:32;16.10;60.80
29431;DHT22;16404;49.902;10.074;2022-11-15T17:49:17;16.10;60.70
29431;DHT22;16404;49.902;10.074;2022-11-15T17:52:01;16.00;60.80
29431;DHT22;16404;49.902;10.074;2022-11-15T17:54:45;16.00;60.80
29431;DHT22;16404;49.902;10.074;2022-11-15T17:57:30;16.00;60.80
29431;DHT22;16404;49.902;10.074;2022-11-15T18:00:14;16.00;60.90
29431;DHT22;16404;49.902;10.074;2022-11-15T18:02:59;16.00;61.00
29431;DHT22;16404;49.902;10.074;2022-11-15T18:05:43;15.90;61.00
29431;DHT22;16404;49.902;10.074;2022-11-15T18:08:27;15.90;61.10
29431;DHT22;16404;49.902;10.074;2022-11-15T18:11:16;15.90;61.30
29431;DHT22;16404;49.902;10.074;2022-11-15T18:14:01;15.90;61.30
29431;DHT22;16404;49.902;10.074;2022-11-15T18:16:46;15.90;61.10
29431;DHT22;16404;49.902;10.074;2022-11-15T18:19:30;15.90;61.30
29431;DHT22;16404;49.902;10.074;2022-11-15T18:22:14;15.80;61.20
29431;DHT22;16404;49.902;10.074;2022-11-15T18:24:58;15.80;61.40
29431;DHT22;16404;49.902;10.074;2022-11-15T18:27:43;15.80;61.50
29431;DHT22;16404;49.902;10.074;2022-11-15T18:30:27;15.80;61.40
29431;DHT22;16404;49.902;10.074;2022-11-15T18:33:11;15.70;61.40
29431;DHT22;16404;49.902;10.074;2022-11-15T18:36:03;15.70;61.40
29431;DHT22;16404;49.902;10.074;2022-11-15T18:38:48;15.70;61.40
29431;DHT22;16404;49.902;10.074;2022-11-15T18:41:36;15.70;61.60
29431;DHT22;16404;49.902;10.074;2022-11-15T18:44:20;15.60;61.60
29431;DHT22;16404;49.902;10.074;2022-11-15T18:47:04;15.60;61.60
29431;DHT22;16404;49.902;10.074;2022-11-15T18:49:49;15.50;61.50
29431;DHT22;16404;49.902;10.074;2022-11-15T18:52:33;15.50;61.70
29431;DHT22;16404;49.902;10.074;2022-11-15T18:55:18;15.40;61.90
29431;DHT22;16404;49.902;10.074;2022-11-15T18:58:02;15.40;61.80
29431;DHT22;16404;49.902;10.074;2022-11-15T19:00:46;15.40;61.90
29431;DHT22;16404;49.902;10.074;2022-11-15T19:03:33;15.30;61.80
29431;DHT22;16404;49.902;10.074;2022-11-15T19:06:18;15.30;61.80
29431;DHT22;16404;49.902;10.074;2022-11-15T19:09:03;15.20;61.90
29431;DHT22;16404;49.902;10.074;2022-11-15T19:11:47;15.20;62.10
29431;DHT22;16404;49.902;10.074;2022-11-15T19:14:34;15.20;62.20
29431;DHT22;16404;49.902;10.074;2022-11-15T19:17:18;15.20;62.00
29431;DHT22;16404;49.902;10.074;2022-11-15T19:20:03;15.10;62.00
29431;DHT22;16404;49.902;10.074;2022-11-15T19:22:47;15.00;62.20
29431;DHT22;16404;49.902;10.074;2022-11-15T19:25:32;15.10;62.30
29431;DHT22;16404;49.902;10.074;2022-11-15T19:28:16;15.10;62.20
29431;DHT22;16404;49.902;10.074;2022-11-15T19:33:48;15.10;61.90
29431;DHT22;16404;49.902;10.074;2022-11-15T19:36:37;15.00;61.90
29431;DHT22;16404;49.902;10.074;2022-11-15T19:39:22;15.00;62.00
29431;DHT22;16404;49.902;10.074;2022-11-15T19:42:06;15.00;62.00
29431;DHT22;16404;49.902;10.074;2022-11-15T19:44:50;15.00;62.10
29431;DHT22;16404;49.902;10.074;2022-11-15T19:47:35;14.90;62.00
29431;DHT22;16404;49.902;10.074;2022-11-15T19:50:19;15.00;62.10
29431;DHT22;16404;49.902;10.074;2022-11-15T19:53:03;14.90;62.10